Terminal Aerodrome Forecast
Issued by NWS

Home | Current Version | Previous Version | Text Only | Print | Product List | Glossary Off
Versions: 1 2 3 4 5 6 7 8 9 10 11 12 13 14

843
FTUS43 KABR 172323
TAFPIR
TAF
KPIR 172323Z 1800/1824 VRB05KT P6SM VCSH OVC070
     FM181200 30014KT P6SM SCT250=

USA.gov is the U.S. government's official web portal to all federal, state and local government web resources and services.